sensor_id;sensor_type;location;lat;lon;timestamp;P1;durP1;ratioP1;P2;durP2;ratioP2
3867;SDS011;1949;48.152;11.528;2024-02-26T00:03:46;9.27;;;4.27;;
3867;SDS011;1949;48.152;11.528;2024-02-26T00:06:19;14.53;;;5.40;;
3867;SDS011;1949;48.152;11.528;2024-02-26T00:08:55;10.93;;;4.50;;
3867;SDS011;1949;48.152;11.528;2024-02-26T00:11:24;9.77;;;4.70;;
3867;SDS011;1949;48.152;11.528;2024-02-26T00:13:50;13.20;;;4.77;;
3867;SDS011;1949;48.152;11.528;2024-02-26T00:16:16;12.90;;;5.80;;
3867;SDS011;1949;48.152;11.528;2024-02-26T00:18:44;12.03;;;5.13;;
3867;SDS011;1949;48.152;11.528;2024-02-26T00:21:10;12.40;;;3.97;;
3867;SDS011;1949;48.152;11.528;2024-02-26T00:26:07;11.77;;;3.60;;
3867;SDS011;1949;48.152;11.528;2024-02-26T00:28:34;6.20;;;3.53;;
3867;SDS011;1949;48.152;11.528;2024-02-26T00:30:59;5.50;;;2.67;;
3867;SDS011;1949;48.152;11.528;2024-02-26T00:33:26;3.33;;;2.23;;
3867;SDS011;1949;48.152;11.528;2024-02-26T00:35:52;9.20;;;4.20;;
3867;SDS011;1949;48.152;11.528;2024-02-26T00:38:18;5.13;;;2.73;;
3867;SDS011;1949;48.152;11.528;2024-02-26T00:40:44;4.73;;;2.67;;
3867;SDS011;1949;48.152;11.528;2024-02-26T00:43:11;2.90;;;1.90;;
3867;SDS011;1949;48.152;11.528;2024-02-26T00:45:38;4.30;;;2.53;;
3867;SDS011;1949;48.152;11.528;2024-02-26T00:48:04;3.53;;;2.10;;
3867;SDS011;1949;48.152;11.528;2024-02-26T00:50:31;3.83;;;2.20;;
3867;SDS011;1949;48.152;11.528;2024-02-26T00:52:57;2.40;;;1.70;;
3867;SDS011;1949;48.152;11.528;2024-02-26T00:55:23;3.97;;;2.63;;
3867;SDS011;1949;48.152;11.528;2024-02-26T00:57:49;2.63;;;2.30;;
3867;SDS011;1949;48.152;11.528;2024-02-26T01:00:15;5.00;;;1.90;;
3867;SDS011;1949;48.152;11.528;2024-02-26T01:02:42;7.10;;;2.63;;
3867;SDS011;1949;48.152;11.528;2024-02-26T01:05:08;5.00;;;2.27;;
3867;SDS011;1949;48.152;11.528;2024-02-26T01:07:37;2.57;;;1.77;;
3867;SDS011;1949;48.152;11.528;2024-02-26T01:10:03;3.00;;;1.63;;
3867;SDS011;1949;48.152;11.528;2024-02-26T01:12:29;3.83;;;2.10;;
3867;SDS011;1949;48.152;11.528;2024-02-26T01:14:55;4.03;;;2.30;;
3867;SDS011;1949;48.152;11.528;2024-02-26T01:17:20;2.20;;;2.00;;
3867;SDS011;1949;48.152;11.528;2024-02-26T01:19:46;3.57;;;2.33;;
3867;SDS011;1949;48.152;11.528;2024-02-26T01:22:13;4.80;;;3.00;;
3867;SDS011;1949;48.152;11.528;2024-02-26T01:24:39;3.37;;;1.87;;
3867;SDS011;1949;48.152;11.528;2024-02-26T01:27:08;1.77;;;1.60;;
3867;SDS011;1949;48.152;11.528;2024-02-26T01:29:34;3.20;;;2.10;;
3867;SDS011;1949;48.152;11.528;2024-02-26T01:32:00;3.87;;;2.47;;
3867;SDS011;1949;48.152;11.528;2024-02-26T01:34:26;3.00;;;1.70;;
3867;SDS011;1949;48.152;11.528;2024-02-26T01:36:52;3.50;;;2.27;;
3867;SDS011;1949;48.152;11.528;2024-02-26T01:41:48;2.07;;;1.70;;
3867;SDS011;1949;48.152;11.528;2024-02-26T01:44:14;2.73;;;1.87;;
3867;SDS011;1949;48.152;11.528;2024-02-26T01:46:40;2.50;;;1.87;;
3867;SDS011;1949;48.152;11.528;2024-02-26T01:49:06;4.53;;;2.43;;
3867;SDS011;1949;48.152;11.528;2024-02-26T01:51:33;3.20;;;1.90;;
3867;SDS011;1949;48.152;11.528;2024-02-26T01:54:01;3.40;;;2.20;;
3867;SDS011;1949;48.152;11.528;2024-02-26T01:56:28;2.50;;;1.60;;
3867;SDS011;1949;48.152;11.528;2024-02-26T01:58:58;2.77;;;2.10;;
3867;SDS011;1949;48.152;11.528;2024-02-26T02:01:27;4.83;;;2.10;;
3867;SDS011;1949;48.152;11.528;2024-02-26T02:03:56;3.03;;;2.20;;
3867;SDS011;1949;48.152;11.528;2024-02-26T02:06:25;4.10;;;2.37;;
3867;SDS011;1949;48.152;11.528;2024-02-26T02:08:53;3.57;;;1.90;;
3867;SDS011;1949;48.152;11.528;2024-02-26T02:11:19;4.27;;;1.80;;
3867;SDS011;1949;48.152;11.528;2024-02-26T02:13:46;1.87;;;1.60;;
3867;SDS011;1949;48.152;11.528;2024-02-26T02:16:12;2.00;;;1.60;;
3867;SDS011;1949;48.152;11.528;2024-02-26T02:18:38;3.03;;;1.73;;
3867;SDS011;1949;48.152;11.528;2024-02-26T02:23:33;2.50;;;2.10;;
3867;SDS011;1949;48.152;11.528;2024-02-26T02:25:59;2.10;;;1.77;;
3867;SDS011;1949;48.152;11.528;2024-02-26T02:28:25;3.43;;;2.70;;
3867;SDS011;1949;48.152;11.528;2024-02-26T02:30:52;3.50;;;2.30;;
3867;SDS011;1949;48.152;11.528;2024-02-26T02:35:49;2.10;;;1.60;;
3867;SDS011;1949;48.152;11.528;2024-02-26T02:38:16;3.30;;;1.90;;
3867;SDS011;1949;48.152;11.528;2024-02-26T02:40:42;2.70;;;1.60;;
3867;SDS011;1949;48.152;11.528;2024-02-26T02:43:07;2.30;;;1.57;;
3867;SDS011;1949;48.152;11.528;2024-02-26T02:45:33;3.90;;;2.03;;
3867;SDS011;1949;48.152;11.528;2024-02-26T02:47:59;3.53;;;1.70;;
3867;SDS011;1949;48.152;11.528;2024-02-26T02:50:24;3.63;;;1.70;;
3867;SDS011;1949;48.152;11.528;2024-02-26T02:52:50;5.73;;;1.70;;
3867;SDS011;1949;48.152;11.528;2024-02-26T02:55:16;3.30;;;2.00;;
3867;SDS011;1949;48.152;11.528;2024-02-26T02:57:42;4.23;;;2.00;;
3867;SDS011;1949;48.152;11.528;2024-02-26T03:00:11;5.50;;;1.80;;
3867;SDS011;1949;48.152;11.528;2024-02-26T03:02:37;4.07;;;1.93;;
3867;SDS011;1949;48.152;11.528;2024-02-26T03:05:03;2.83;;;1.80;;
3867;SDS011;1949;48.152;11.528;2024-02-26T03:07:30;3.17;;;1.57;;
3867;SDS011;1949;48.152;11.528;2024-02-26T03:09:55;2.77;;;1.70;;
3867;SDS011;1949;48.152;11.528;2024-02-26T03:12:21;1.93;;;1.53;;
3867;SDS011;1949;48.152;11.528;2024-02-26T03:14:47;3.03;;;2.00;;
3867;SDS011;1949;48.152;11.528;2024-02-26T03:17:13;3.07;;;1.67;;
3867;SDS011;1949;48.152;11.528;2024-02-26T03:19:38;2.50;;;1.60;;
3867;SDS011;1949;48.152;11.528;2024-02-26T03:22:04;5.17;;;1.67;;
3867;SDS011;1949;48.152;11.528;2024-02-26T03:24:30;2.73;;;1.60;;
3867;SDS011;1949;48.152;11.528;2024-02-26T03:26:57;3.17;;;1.70;;
3867;SDS011;1949;48.152;11.528;2024-02-26T03:29:22;2.03;;;1.40;;
3867;SDS011;1949;48.152;11.528;2024-02-26T03:31:49;2.20;;;2.00;;
3867;SDS011;1949;48.152;11.528;2024-02-26T03:34:14;1.80;;;1.30;;
3867;SDS011;1949;48.152;11.528;2024-02-26T03:36:41;1.40;;;1.23;;
3867;SDS011;1949;48.152;11.528;2024-02-26T03:39:07;4.43;;;2.23;;
3867;SDS011;1949;48.152;11.528;2024-02-26T03:41:33;3.37;;;2.17;;
3867;SDS011;1949;48.152;11.528;2024-02-26T03:44:01;4.73;;;2.77;;
3867;SDS011;1949;48.152;11.528;2024-02-26T03:46:27;4.57;;;2.17;;
3867;SDS011;1949;48.152;11.528;2024-02-26T03:48:53;5.50;;;2.80;;
3867;SDS011;1949;48.152;11.528;2024-02-26T03:51:18;3.40;;;2.30;;
3867;SDS011;1949;48.152;11.528;2024-02-26T03:53:44;3.33;;;1.70;;
3867;SDS011;1949;48.152;11.528;2024-02-26T03:56:13;2.90;;;1.90;;
3867;SDS011;1949;48.152;11.528;2024-02-26T03:58:38;1.83;;;1.40;;
3867;SDS011;1949;48.152;11.528;2024-02-26T04:01:06;1.73;;;1.30;;
3867;SDS011;1949;48.152;11.528;2024-02-26T04:03:35;1.67;;;1.43;;
3867;SDS011;1949;48.152;11.528;2024-02-26T04:06:01;1.50;;;1.40;;
3867;SDS011;1949;48.152;11.528;2024-02-26T04:08:27;3.27;;;1.33;;
3867;SDS011;1949;48.152;11.528;2024-02-26T04:10:53;3.00;;;1.30;;
3867;SDS011;1949;48.152;11.528;2024-02-26T04:13:20;1.23;;;0.90;;
3867;SDS011;1949;48.152;11.528;2024-02-26T04:15:46;1.80;;;1.30;;
3867;SDS011;1949;48.152;11.528;2024-02-26T04:18:12;2.27;;;1.30;;
3867;SDS011;1949;48.152;11.528;2024-02-26T04:20:41;2.90;;;1.20;;
3867;SDS011;1949;48.152;11.528;2024-02-26T04:23:07;1.77;;;1.47;;
3867;SDS011;1949;48.152;11.528;2024-02-26T04:25:36;11.80;;;1.80;;
3867;SDS011;1949;48.152;11.528;2024-02-26T04:28:02;1.73;;;1.20;;
3867;SDS011;1949;48.152;11.528;2024-02-26T04:30:28;1.97;;;1.40;;
3867;SDS011;1949;48.152;11.528;2024-02-26T04:32:55;4.77;;;1.20;;
3867;SDS011;1949;48.152;11.528;2024-02-26T04:35:28;2.63;;;1.10;;
3867;SDS011;1949;48.152;11.528;2024-02-26T04:37:55;2.40;;;1.33;;
3867;SDS011;1949;48.152;11.528;2024-02-26T04:40:21;2.53;;;1.20;;
3867;SDS011;1949;48.152;11.528;2024-02-26T04:42:47;2.70;;;1.30;;
3867;SDS011;1949;48.152;11.528;2024-02-26T04:45:12;1.57;;;1.20;;
3867;SDS011;1949;48.152;11.528;2024-02-26T04:47:38;1.80;;;1.47;;
3867;SDS011;1949;48.152;11.528;2024-02-26T04:50:04;1.87;;;1.57;;
3867;SDS011;1949;48.152;11.528;2024-02-26T04:52:30;2.37;;;1.17;;
3867;SDS011;1949;48.152;11.528;2024-02-26T04:54:57;1.67;;;1.10;;
3867;SDS011;1949;48.152;11.528;2024-02-26T04:57:25;2.50;;;1.33;;
3867;SDS011;1949;48.152;11.528;2024-02-26T04:59:52;2.00;;;1.20;;
3867;SDS011;1949;48.152;11.528;2024-02-26T05:02:18;2.03;;;1.47;;
3867;SDS011;1949;48.152;11.528;2024-02-26T05:04:44;2.37;;;1.50;;
3867;SDS011;1949;48.152;11.528;2024-02-26T05:07:09;3.93;;;1.10;;
3867;SDS011;1949;48.152;11.528;2024-02-26T05:09:35;1.53;;;1.30;;
3867;SDS011;1949;48.152;11.528;2024-02-26T05:12:11;1.17;;;1.07;;
3867;SDS011;1949;48.152;11.528;2024-02-26T05:14:37;3.47;;;1.47;;
3867;SDS011;1949;48.152;11.528;2024-02-26T05:17:02;1.67;;;1.40;;
3867;SDS011;1949;48.152;11.528;2024-02-26T05:19:28;0.90;;;0.90;;
3867;SDS011;1949;48.152;11.528;2024-02-26T05:21:54;1.57;;;1.27;;
3867;SDS011;1949;48.152;11.528;2024-02-26T05:24:22;1.20;;;1.10;;
3867;SDS011;1949;48.152;11.528;2024-02-26T05:26:48;2.00;;;1.23;;
3867;SDS011;1949;48.152;11.528;2024-02-26T05:29:13;2.17;;;1.43;;
3867;SDS011;1949;48.152;11.528;2024-02-26T05:31:41;6.63;;;1.03;;
3867;SDS011;1949;48.152;11.528;2024-02-26T05:34:08;1.83;;;1.10;;
3867;SDS011;1949;48.152;11.528;2024-02-26T05:36:52;1.37;;;0.97;;
3867;SDS011;1949;48.152;11.528;2024-02-26T05:39:18;5.80;;;1.20;;
3867;SDS011;1949;48.152;11.528;2024-02-26T05:41:52;1.97;;;1.20;;
3867;SDS011;1949;48.152;11.528;2024-02-26T05:46:56;5.13;;;1.80;;
3867;SDS011;1949;48.152;11.528;2024-02-26T05:49:26;9.27;;;3.43;;
3867;SDS011;1949;48.152;11.528;2024-02-26T05:52:10;9.10;;;4.00;;
3867;SDS011;1949;48.152;11.528;2024-02-26T05:54:51;4.90;;;2.30;;
3867;SDS011;1949;48.152;11.528;2024-02-26T06:05:29;1.67;;;1.30;;
3867;SDS011;1949;48.152;11.528;2024-02-26T06:07:57;2.83;;;1.47;;
3867;SDS011;1949;48.152;11.528;2024-02-26T06:19:21;6.30;;;2.03;;
3867;SDS011;1949;48.152;11.528;2024-02-26T06:21:47;4.73;;;1.60;;
3867;SDS011;1949;48.152;11.528;2024-02-26T06:24:15;13.23;;;1.80;;
3867;SDS011;1949;48.152;11.528;2024-02-26T06:26:42;10.57;;;2.30;;
3867;SDS011;1949;48.152;11.528;2024-02-26T06:29:11;3.40;;;1.67;;
3867;SDS011;1949;48.152;11.528;2024-02-26T06:31:37;2.00;;;1.50;;
3867;SDS011;1949;48.152;11.528;2024-02-26T06:34:02;3.23;;;2.20;;
3867;SDS011;1949;48.152;11.528;2024-02-26T06:36:32;2.17;;;1.43;;
3867;SDS011;1949;48.152;11.528;2024-02-26T06:38:59;5.80;;;2.70;;
3867;SDS011;1949;48.152;11.528;2024-02-26T06:41:40;7.40;;;2.33;;
3867;SDS011;1949;48.152;11.528;2024-02-26T06:44:12;8.20;;;3.57;;
3867;SDS011;1949;48.152;11.528;2024-02-26T06:46:41;9.57;;;3.90;;
3867;SDS011;1949;48.152;11.528;2024-02-26T06:49:07;5.80;;;2.37;;
3867;SDS011;1949;48.152;11.528;2024-02-26T06:51:45;11.10;;;2.33;;
3867;SDS011;1949;48.152;11.528;2024-02-26T06:54:16;3.40;;;1.50;;
3867;SDS011;1949;48.152;11.528;2024-02-26T06:56:43;1.30;;;1.00;;
3867;SDS011;1949;48.152;11.528;2024-02-26T07:02:04;3.07;;;1.87;;
3867;SDS011;1949;48.152;11.528;2024-02-26T07:04:48;5.73;;;3.17;;
3867;SDS011;1949;48.152;11.528;2024-02-26T07:07:14;7.17;;;3.80;;
3867;SDS011;1949;48.152;11.528;2024-02-26T07:09:46;3.73;;;2.27;;
3867;SDS011;1949;48.152;11.528;2024-02-26T07:12:19;10.80;;;2.87;;
3867;SDS011;1949;48.152;11.528;2024-02-26T07:17:43;5.90;;;2.33;;
3867;SDS011;1949;48.152;11.528;2024-02-26T07:20:15;3.30;;;2.17;;
3867;SDS011;1949;48.152;11.528;2024-02-26T07:22:53;9.90;;;2.00;;
3867;SDS011;1949;48.152;11.528;2024-02-26T07:25:24;4.90;;;2.00;;
3867;SDS011;1949;48.152;11.528;2024-02-26T07:28:04;13.37;;;5.07;;
3867;SDS011;1949;48.152;11.528;2024-02-26T07:30:39;11.00;;;3.27;;
3867;SDS011;1949;48.152;11.528;2024-02-26T07:33:06;5.37;;;2.20;;
3867;SDS011;1949;48.152;11.528;2024-02-26T07:38:10;10.97;;;4.70;;
3867;SDS011;1949;48.152;11.528;2024-02-26T07:43:18;10.13;;;5.20;;
3867;SDS011;1949;48.152;11.528;2024-02-26T07:45:47;12.00;;;4.27;;
3867;SDS011;1949;48.152;11.528;2024-02-26T07:48:17;4.37;;;2.43;;
3867;SDS011;1949;48.152;11.528;2024-02-26T07:50:54;11.33;;;5.20;;
3867;SDS011;1949;48.152;11.528;2024-02-26T07:53:19;10.17;;;3.30;;
3867;SDS011;1949;48.152;11.528;2024-02-26T07:56:00;9.17;;;3.87;;
3867;SDS011;1949;48.152;11.528;2024-02-26T08:04:09;29.43;;;10.63;;
3867;SDS011;1949;48.152;11.528;2024-02-26T08:06:38;60.30;;;20.30;;
3867;SDS011;1949;48.152;11.528;2024-02-26T08:09:10;58.17;;;18.47;;
3867;SDS011;1949;48.152;11.528;2024-02-26T08:11:47;22.93;;;7.20;;
3867;SDS011;1949;48.152;11.528;2024-02-26T08:20:06;19.93;;;5.40;;
3867;SDS011;1949;48.152;11.528;2024-02-26T08:22:32;12.63;;;4.27;;
3867;SDS011;1949;48.152;11.528;2024-02-26T08:27:37;23.23;;;10.03;;
3867;SDS011;1949;48.152;11.528;2024-02-26T08:33:00;17.00;;;7.20;;
3867;SDS011;1949;48.152;11.528;2024-02-26T08:35:32;20.07;;;8.30;;
3867;SDS011;1949;48.152;11.528;2024-02-26T08:38:04;38.37;;;7.40;;
3867;SDS011;1949;48.152;11.528;2024-02-26T08:43:33;5.17;;;2.73;;
3867;SDS011;1949;48.152;11.528;2024-02-26T08:46:01;7.53;;;3.43;;
3867;SDS011;1949;48.152;11.528;2024-02-26T08:48:28;15.40;;;4.67;;
3867;SDS011;1949;48.152;11.528;2024-02-26T08:54:02;8.13;;;3.30;;
3867;SDS011;1949;48.152;11.528;2024-02-26T08:56:39;5.90;;;3.30;;
3867;SDS011;1949;48.152;11.528;2024-02-26T09:05:48;23.20;;;9.00;;
3867;SDS011;1949;48.152;11.528;2024-02-26T09:08:14;29.47;;;11.90;;
3867;SDS011;1949;48.152;11.528;2024-02-26T09:10:43;19.17;;;5.47;;
3867;SDS011;1949;48.152;11.528;2024-02-26T09:13:11;26.10;;;10.83;;
3867;SDS011;1949;48.152;11.528;2024-02-26T09:15:37;43.40;;;15.40;;
3867;SDS011;1949;48.152;11.528;2024-02-26T09:24:06;38.43;;;14.33;;
3867;SDS011;1949;48.152;11.528;2024-02-26T09:35:01;50.13;;;17.93;;
3867;SDS011;1949;48.152;11.528;2024-02-26T09:42:59;34.00;;;13.13;;
3867;SDS011;1949;48.152;11.528;2024-02-26T09:45:26;42.40;;;16.87;;
3867;SDS011;1949;48.152;11.528;2024-02-26T09:47:53;49.03;;;18.97;;
3867;SDS011;1949;48.152;11.528;2024-02-26T09:50:24;63.47;;;23.60;;
3867;SDS011;1949;48.152;11.528;2024-02-26T09:52:51;59.43;;;23.40;;
3867;SDS011;1949;48.152;11.528;2024-02-26T09:55:18;51.40;;;20.10;;
3867;SDS011;1949;48.152;11.528;2024-02-26T10:03:47;29.97;;;9.40;;
3867;SDS011;1949;48.152;11.528;2024-02-26T10:17:16;23.73;;;10.67;;
3867;SDS011;1949;48.152;11.528;2024-02-26T10:19:45;40.67;;;16.03;;
3867;SDS011;1949;48.152;11.528;2024-02-26T10:25:01;51.00;;;20.13;;
3867;SDS011;1949;48.152;11.528;2024-02-26T10:33:10;56.90;;;23.00;;
3867;SDS011;1949;48.152;11.528;2024-02-26T10:35:50;39.27;;;16.07;;
3867;SDS011;1949;48.152;11.528;2024-02-26T10:38:15;45.33;;;19.30;;
3867;SDS011;1949;48.152;11.528;2024-02-26T10:41:04;43.10;;;16.80;;
3867;SDS011;1949;48.152;11.528;2024-02-26T10:46:30;32.53;;;11.57;;
3867;SDS011;1949;48.152;11.528;2024-02-26T10:49:04;38.80;;;14.40;;
3867;SDS011;1949;48.152;11.528;2024-02-26T10:54:20;27.70;;;10.73;;
3867;SDS011;1949;48.152;11.528;2024-02-26T10:59:53;80.80;;;25.00;;
3867;SDS011;1949;48.152;11.528;2024-02-26T11:02:33;28.40;;;9.87;;
3867;SDS011;1949;48.152;11.528;2024-02-26T11:05:07;14.77;;;6.47;;
3867;SDS011;1949;48.152;11.528;2024-02-26T11:07:36;54.53;;;17.90;;
3867;SDS011;1949;48.152;11.528;2024-02-26T11:10:06;15.80;;;5.87;;
3867;SDS011;1949;48.152;11.528;2024-02-26T11:12:42;71.20;;;28.90;;
3867;SDS011;1949;48.152;11.528;2024-02-26T11:21:04;17.50;;;7.57;;
3867;SDS011;1949;48.152;11.528;2024-02-26T11:23:30;7.10;;;4.10;;
3867;SDS011;1949;48.152;11.528;2024-02-26T11:26:00;21.93;;;9.33;;
3867;SDS011;1949;48.152;11.528;2024-02-26T11:28:28;61.37;;;23.03;;
3867;SDS011;1949;48.152;11.528;2024-02-26T11:33:52;35.37;;;15.47;;
3867;SDS011;1949;48.152;11.528;2024-02-26T11:36:28;31.20;;;13.43;;
3867;SDS011;1949;48.152;11.528;2024-02-26T11:38:55;37.43;;;14.20;;
3867;SDS011;1949;48.152;11.528;2024-02-26T11:41:22;64.57;;;24.70;;
3867;SDS011;1949;48.152;11.528;2024-02-26T11:43:52;47.30;;;19.97;;
3867;SDS011;1949;48.152;11.528;2024-02-26T11:46:28;35.47;;;16.07;;
3867;SDS011;1949;48.152;11.528;2024-02-26T11:49:31;39.23;;;17.13;;
3867;SDS011;1949;48.152;11.528;2024-02-26T11:51:58;31.83;;;15.10;;
3867;SDS011;1949;48.152;11.528;2024-02-26T11:57:24;11.10;;;4.87;;
3867;SDS011;1949;48.152;11.528;2024-02-26T12:00:22;15.97;;;7.50;;
3867;SDS011;1949;48.152;11.528;2024-02-26T12:02:56;11.00;;;6.00;;
3867;SDS011;1949;48.152;11.528;2024-02-26T12:08:11;13.50;;;7.00;;
3867;SDS011;1949;48.152;11.528;2024-02-26T12:10:48;8.20;;;4.37;;
3867;SDS011;1949;48.152;11.528;2024-02-26T12:13:15;8.97;;;3.47;;
3867;SDS011;1949;48.152;11.528;2024-02-26T12:18:25;10.57;;;5.27;;
3867;SDS011;1949;48.152;11.528;2024-02-26T12:24:22;9.57;;;5.20;;
3867;SDS011;1949;48.152;11.528;2024-02-26T12:26:48;9.40;;;3.90;;
3867;SDS011;1949;48.152;11.528;2024-02-26T12:29:14;11.20;;;4.50;;
3867;SDS011;1949;48.152;11.528;2024-02-26T12:31:40;7.60;;;4.00;;
3867;SDS011;1949;48.152;11.528;2024-02-26T12:34:07;8.23;;;4.00;;
3867;SDS011;1949;48.152;11.528;2024-02-26T12:36:34;6.03;;;3.80;;
3867;SDS011;1949;48.152;11.528;2024-02-26T12:45:33;9.10;;;3.17;;
3867;SDS011;1949;48.152;11.528;2024-02-26T12:48:07;9.50;;;4.00;;
3867;SDS011;1949;48.152;11.528;2024-02-26T12:53:59;5.20;;;3.00;;
3867;SDS011;1949;48.152;11.528;2024-02-26T12:56:26;10.80;;;3.60;;
3867;SDS011;1949;48.152;11.528;2024-02-26T12:58:56;21.17;;;5.77;;
3867;SDS011;1949;48.152;11.528;2024-02-26T13:04:40;8.10;;;4.00;;
3867;SDS011;1949;48.152;11.528;2024-02-26T13:13:17;7.57;;;3.10;;
3867;SDS011;1949;48.152;11.528;2024-02-26T13:18:45;5.67;;;3.00;;
3867;SDS011;1949;48.152;11.528;2024-02-26T13:24:33;4.90;;;3.33;;
3867;SDS011;1949;48.152;11.528;2024-02-26T13:26:59;25.03;;;3.10;;
3867;SDS011;1949;48.152;11.528;2024-02-26T13:29:28;3.83;;;2.07;;
3867;SDS011;1949;48.152;11.528;2024-02-26T13:35:16;6.03;;;3.30;;
3867;SDS011;1949;48.152;11.528;2024-02-26T13:37:42;6.87;;;3.80;;
3867;SDS011;1949;48.152;11.528;2024-02-26T13:43:30;8.30;;;3.73;;
3867;SDS011;1949;48.152;11.528;2024-02-26T13:52:01;3.60;;;2.27;;
3867;SDS011;1949;48.152;11.528;2024-02-26T14:01:16;5.07;;;2.63;;
3867;SDS011;1949;48.152;11.528;2024-02-26T14:12:37;5.70;;;1.87;;
3867;SDS011;1949;48.152;11.528;2024-02-26T14:15:04;2.90;;;1.80;;
3867;SDS011;1949;48.152;11.528;2024-02-26T14:17:34;4.43;;;2.27;;
3867;SDS011;1949;48.152;11.528;2024-02-26T14:20:00;2.60;;;1.60;;
3867;SDS011;1949;48.152;11.528;2024-02-26T14:22:26;3.57;;;1.90;;
3867;SDS011;1949;48.152;11.528;2024-02-26T14:27:46;6.23;;;1.57;;
3867;SDS011;1949;48.152;11.528;2024-02-26T14:30:12;3.40;;;1.70;;
3867;SDS011;1949;48.152;11.528;2024-02-26T14:32:38;5.23;;;1.83;;
3867;SDS011;1949;48.152;11.528;2024-02-26T14:35:05;3.90;;;2.30;;
3867;SDS011;1949;48.152;11.528;2024-02-26T14:37:34;3.30;;;1.67;;
3867;SDS011;1949;48.152;11.528;2024-02-26T14:43:27;4.73;;;1.63;;
3867;SDS011;1949;48.152;11.528;2024-02-26T14:49:14;20.97;;;9.57;;
3867;SDS011;1949;48.152;11.528;2024-02-26T14:54:29;29.80;;;9.30;;
3867;SDS011;1949;48.152;11.528;2024-02-26T14:57:02;22.70;;;10.10;;
3867;SDS011;1949;48.152;11.528;2024-02-26T15:02:52;13.13;;;6.47;;
3867;SDS011;1949;48.152;11.528;2024-02-26T15:05:35;11.73;;;5.10;;
3867;SDS011;1949;48.152;11.528;2024-02-26T15:08:01;13.00;;;5.33;;
3867;SDS011;1949;48.152;11.528;2024-02-26T15:10:27;11.33;;;5.67;;
3867;SDS011;1949;48.152;11.528;2024-02-26T15:13:07;15.80;;;6.93;;
3867;SDS011;1949;48.152;11.528;2024-02-26T15:19:06;34.60;;;13.50;;
3867;SDS011;1949;48.152;11.528;2024-02-26T15:21:41;39.80;;;15.40;;
3867;SDS011;1949;48.152;11.528;2024-02-26T15:27:36;55.23;;;22.17;;
3867;SDS011;1949;48.152;11.528;2024-02-26T15:36:16;12.83;;;5.17;;
3867;SDS011;1949;48.152;11.528;2024-02-26T15:38:42;19.63;;;9.40;;
3867;SDS011;1949;48.152;11.528;2024-02-26T15:41:11;18.53;;;9.13;;
3867;SDS011;1949;48.152;11.528;2024-02-26T15:43:38;15.80;;;7.87;;
3867;SDS011;1949;48.152;11.528;2024-02-26T15:46:04;17.70;;;7.90;;
3867;SDS011;1949;48.152;11.528;2024-02-26T15:48:38;14.17;;;6.20;;
3867;SDS011;1949;48.152;11.528;2024-02-26T15:51:04;6.50;;;2.90;;
3867;SDS011;1949;48.152;11.528;2024-02-26T15:56:25;9.13;;;5.37;;
3867;SDS011;1949;48.152;11.528;2024-02-26T15:58:51;11.00;;;3.53;;
3867;SDS011;1949;48.152;11.528;2024-02-26T16:01:17;7.93;;;4.30;;
3867;SDS011;1949;48.152;11.528;2024-02-26T16:03:44;16.33;;;5.90;;
3867;SDS011;1949;48.152;11.528;2024-02-26T16:06:19;15.70;;;6.20;;
3867;SDS011;1949;48.152;11.528;2024-02-26T16:08:50;8.47;;;3.70;;
3867;SDS011;1949;48.152;11.528;2024-02-26T16:11:17;12.80;;;4.40;;
3867;SDS011;1949;48.152;11.528;2024-02-26T16:13:55;5.33;;;2.57;;
3867;SDS011;1949;48.152;11.528;2024-02-26T16:19:33;17.43;;;3.47;;
3867;SDS011;1949;48.152;11.528;2024-02-26T16:22:03;11.23;;;2.80;;
3867;SDS011;1949;48.152;11.528;2024-02-26T16:24:29;8.70;;;4.13;;
3867;SDS011;1949;48.152;11.528;2024-02-26T16:26:55;3.40;;;2.27;;
3867;SDS011;1949;48.152;11.528;2024-02-26T16:29:21;4.53;;;2.43;;
3867;SDS011;1949;48.152;11.528;2024-02-26T16:31:46;5.87;;;3.33;;
3867;SDS011;1949;48.152;11.528;2024-02-26T16:34:12;7.80;;;2.50;;
3867;SDS011;1949;48.152;11.528;2024-02-26T16:36:38;11.03;;;4.50;;
3867;SDS011;1949;48.152;11.528;2024-02-26T16:39:04;8.13;;;3.97;;
3867;SDS011;1949;48.152;11.528;2024-02-26T16:41:30;8.80;;;3.20;;
3867;SDS011;1949;48.152;11.528;2024-02-26T16:43:58;4.93;;;2.97;;
3867;SDS011;1949;48.152;11.528;2024-02-26T16:49:10;4.50;;;2.80;;
3867;SDS011;1949;48.152;11.528;2024-02-26T16:54:09;4.37;;;2.70;;
3867;SDS011;1949;48.152;11.528;2024-02-26T16:59:21;7.43;;;2.00;;
3867;SDS011;1949;48.152;11.528;2024-02-26T17:04:45;7.10;;;1.87;;
3867;SDS011;1949;48.152;11.528;2024-02-26T17:07:12;4.70;;;2.40;;
3867;SDS011;1949;48.152;11.528;2024-02-26T17:09:39;7.70;;;2.03;;
3867;SDS011;1949;48.152;11.528;2024-02-26T17:12:04;3.70;;;2.20;;
3867;SDS011;1949;48.152;11.528;2024-02-26T17:14:30;4.33;;;2.00;;
3867;SDS011;1949;48.152;11.528;2024-02-26T17:16:57;6.37;;;2.30;;
3867;SDS011;1949;48.152;11.528;2024-02-26T17:19:24;6.50;;;2.47;;
3867;SDS011;1949;48.152;11.528;2024-02-26T17:22:09;3.47;;;2.10;;
3867;SDS011;1949;48.152;11.528;2024-02-26T17:24:36;4.83;;;2.23;;
3867;SDS011;1949;48.152;11.528;2024-02-26T17:29:47;4.77;;;2.20;;
3867;SDS011;1949;48.152;11.528;2024-02-26T17:32:23;5.30;;;2.23;;
3867;SDS011;1949;48.152;11.528;2024-02-26T17:38:17;7.30;;;2.33;;
3867;SDS011;1949;48.152;11.528;2024-02-26T17:40:43;13.93;;;1.80;;
3867;SDS011;1949;48.152;11.528;2024-02-26T17:43:09;5.10;;;2.30;;
3867;SDS011;1949;48.152;11.528;2024-02-26T17:45:35;4.27;;;2.70;;
3867;SDS011;1949;48.152;11.528;2024-02-26T17:55:56;5.93;;;2.37;;
3867;SDS011;1949;48.152;11.528;2024-02-26T17:58:22;3.83;;;2.13;;
3867;SDS011;1949;48.152;11.528;2024-02-26T18:03:38;5.63;;;2.20;;
3867;SDS011;1949;48.152;11.528;2024-02-26T18:06:04;4.63;;;2.30;;
3867;SDS011;1949;48.152;11.528;2024-02-26T18:08:30;5.10;;;2.50;;
3867;SDS011;1949;48.152;11.528;2024-02-26T18:10:55;6.13;;;2.83;;
3867;SDS011;1949;48.152;11.528;2024-02-26T18:13:21;3.83;;;2.30;;
3867;SDS011;1949;48.152;11.528;2024-02-26T18:15:47;2.97;;;1.60;;
3867;SDS011;1949;48.152;11.528;2024-02-26T18:18:13;4.87;;;2.10;;
3867;SDS011;1949;48.152;11.528;2024-02-26T18:20:39;4.20;;;2.10;;
3867;SDS011;1949;48.152;11.528;2024-02-26T18:23:04;9.80;;;2.40;;
3867;SDS011;1949;48.152;11.528;2024-02-26T18:25:30;3.97;;;2.17;;
3867;SDS011;1949;48.152;11.528;2024-02-26T18:27:56;5.47;;;2.50;;
3867;SDS011;1949;48.152;11.528;2024-02-26T18:33:32;3.87;;;2.10;;
3867;SDS011;1949;48.152;11.528;2024-02-26T18:35:58;2.10;;;1.70;;
3867;SDS011;1949;48.152;11.528;2024-02-26T18:38:24;4.67;;;2.23;;
3867;SDS011;1949;48.152;11.528;2024-02-26T18:40:50;3.30;;;2.20;;
3867;SDS011;1949;48.152;11.528;2024-02-26T18:43:15;5.47;;;2.40;;
3867;SDS011;1949;48.152;11.528;2024-02-26T18:48:59;6.37;;;2.93;;
3867;SDS011;1949;48.152;11.528;2024-02-26T18:51:26;7.67;;;2.53;;
3867;SDS011;1949;48.152;11.528;2024-02-26T18:53:51;4.63;;;2.43;;
3867;SDS011;1949;48.152;11.528;2024-02-26T19:05:36;7.83;;;2.47;;
3867;SDS011;1949;48.152;11.528;2024-02-26T19:11:01;5.77;;;2.67;;
3867;SDS011;1949;48.152;11.528;2024-02-26T19:13:28;4.00;;;2.47;;
3867;SDS011;1949;48.152;11.528;2024-02-26T19:15:53;4.77;;;2.53;;
3867;SDS011;1949;48.152;11.528;2024-02-26T19:18:19;3.83;;;2.07;;
3867;SDS011;1949;48.152;11.528;2024-02-26T19:20:45;15.97;;;2.40;;
3867;SDS011;1949;48.152;11.528;2024-02-26T19:23:12;3.90;;;2.03;;
3867;SDS011;1949;48.152;11.528;2024-02-26T19:28:30;5.63;;;2.43;;
3867;SDS011;1949;48.152;11.528;2024-02-26T19:30:56;3.10;;;1.97;;
3867;SDS011;1949;48.152;11.528;2024-02-26T19:33:21;5.83;;;2.40;;
3867;SDS011;1949;48.152;11.528;2024-02-26T19:35:47;4.30;;;2.20;;
3867;SDS011;1949;48.152;11.528;2024-02-26T19:38:13;4.40;;;2.47;;
3867;SDS011;1949;48.152;11.528;2024-02-26T19:44:03;4.60;;;2.37;;
3867;SDS011;1949;48.152;11.528;2024-02-26T19:46:29;3.47;;;2.30;;
3867;SDS011;1949;48.152;11.528;2024-02-26T19:51:46;3.50;;;1.93;;
3867;SDS011;1949;48.152;11.528;2024-02-26T19:54:12;4.60;;;2.83;;